Time;durP1;ratioP1;P1;durP2;ratioP2;P2;SDS_P1;SDS_P2;PMS_P1;PMS_P2;Temp;Humidity;BMP_temperature;BMP_pressure;BME280_temperature;BME280_humidity;BME280_pressure;Samples;Min_cycle;Max_cycle;Signal;HPM_P1;HPM_P2
2022/12/13 00:01:23;;;;;;;41.50;20.35;;;;;;;0.39;68.60;100159.06;5045638;28;20550;-64
2022/12/13 00:03:59;;;;;;;41.40;19.88;;;;;;;0.28;68.30;100157.38;5056038;28;20041;-65
2022/12/13 00:06:27;;;;;;;43.60;19.67;;;;;;;0.22;68.51;100155.69;5055238;28;20653;-66
2022/12/13 00:08:55;;;;;;;46.15;20.92;;;;;;;0.28;68.59;100154.66;5055649;28;20049;-65
2022/12/13 00:11:23;;;;;;;43.50;19.92;;;;;;;0.19;67.83;100148.91;5036831;28;20063;-64
2022/12/13 00:13:50;;;;;;;45.10;20.42;;;;;;;0.19;67.86;100150.78;5013589;28;20049;-64
2022/12/13 00:16:23;;;;;;;42.70;19.73;;;;;;;0.22;67.94;100142.97;5030698;28;20622;-66
2022/12/13 00:18:59;;;;;;;40.25;19.88;;;;;;;0.26;67.63;100140.56;5036563;28;20075;-65
2022/12/13 00:21:31;;;;;;;44.08;20.42;;;;;;;0.20;66.90;100144.28;5054080;28;20053;-65
2022/12/13 00:24:00;;;;;;;39.78;18.67;;;;;;;0.17;66.83;100142.13;5003462;28;20060;-65
2022/12/13 00:26:29;;;;;;;42.95;19.40;;;;;;;0.23;67.44;100144.59;5053993;28;20049;-65
2022/12/13 00:29:02;;;;;;;42.00;19.10;;;;;;;0.33;66.94;100133.81;5036981;28;20059;-64
2022/12/13 00:31:30;;;;;;;40.80;18.75;;;;;;;0.29;66.52;100126.50;5033672;28;20072;-65
2022/12/13 00:34:18;;;;;;;39.45;18.33;;;;;;;0.10;66.98;100130.69;5020128;28;20042;-66
2022/12/13 00:36:45;;;;;;;37.03;18.25;;;;;;;0.22;66.47;100126.72;5034039;28;20350;-65
2022/12/13 00:39:15;;;;;;;38.80;19.15;;;;;;;0.19;66.17;100129.13;5035410;28;20057;-65
2022/12/13 00:41:43;;;;;;;37.95;18.98;;;;;;;0.33;65.67;100122.19;5033720;28;20064;-64
2022/12/13 00:44:12;;;;;;;35.78;18.20;;;;;;;0.35;65.74;100131.66;5033603;28;20042;-65
2022/12/13 00:46:40;;;;;;;38.40;17.98;;;;;;;0.28;65.42;100125.66;5046860;28;20496;-65
2022/12/13 00:49:09;;;;;;;39.00;17.67;;;;;;;0.52;65.09;100126.09;5055148;28;20060;-65
2022/12/13 00:51:37;;;;;;;32.95;16.92;;;;;;;0.19;65.20;100121.00;5038409;28;20069;-65
2022/12/13 00:54:04;;;;;;;36.25;17.88;;;;;;;0.05;66.28;100119.81;5015445;28;20132;-65
2022/12/13 00:56:32;;;;;;;36.20;17.20;;;;;;;0.17;65.76;100129.41;5026278;28;20064;-65
2022/12/13 00:59:00;;;;;;;39.17;17.42;;;;;;;0.19;65.25;100118.31;4998503;28;20057;-65
2022/12/13 01:01:30;;;;;;;34.38;17.00;;;;;;;0.22;65.71;100125.91;5025343;28;20053;-65
2022/12/13 01:04:00;;;;;;;37.88;17.08;;;;;;;0.15;65.78;100125.31;5034427;28;20049;-65
2022/12/13 01:06:33;;;;;;;33.25;17.60;;;;;;;0.20;65.54;100123.44;5050265;28;20050;-65
2022/12/13 01:09:01;;;;;;;31.63;16.40;;;;;;;0.30;64.54;100123.50;5034194;28;20080;-65
2022/12/13 01:11:29;;;;;;;30.35;16.08;;;;;;;0.26;65.08;100121.59;5032368;28;20412;-64
2022/12/13 01:13:56;;;;;;;31.48;15.65;;;;;;;0.49;64.11;100123.94;5029808;28;20513;-64
2022/12/13 01:16:23;;;;;;;35.70;17.33;;;;;;;0.33;64.16;100122.97;5027486;28;20049;-64
2022/12/13 01:18:51;;;;;;;29.35;15.70;;;;;;;0.55;63.96;100128.28;5055043;28;20079;-65
2022/12/13 01:21:22;;;;;;;32.97;16.85;;;;;;;0.26;63.78;100118.91;5037143;28;20057;-65
2022/12/13 01:23:56;;;;;;;29.23;15.48;;;;;;;0.18;63.94;100114.78;5055389;28;20053;-66
2022/12/13 01:26:26;;;;;;;30.58;15.70;;;;;;;0.21;63.72;100122.38;5027638;28;20429;-65
2022/12/13 01:29:00;;;;;;;30.92;15.80;;;;;;;0.18;64.19;100116.66;5016892;28;20057;-64
2022/12/13 01:31:28;;;;;;;27.73;14.60;;;;;;;0.17;64.23;100117.75;5023872;28;20053;-65
2022/12/13 01:33:58;;;;;;;28.10;14.45;;;;;;;0.13;64.16;100120.16;5035265;28;20052;-64
2022/12/13 01:36:31;;;;;;;31.05;14.73;;;;;;;0.16;64.18;100110.72;5032994;28;20060;-65
2022/12/13 01:39:08;;;;;;;28.80;14.30;;;;;;;0.27;63.30;100113.22;5049058;28;20068;-65
2022/12/13 01:41:47;;;;;;;30.40;15.82;;;;;;;0.22;63.04;100106.94;5010869;28;20390;-65
2022/12/13 01:44:54;;;;;;;30.98;14.93;;;;;;;0.21;62.79;100110.75;5026329;28;20041;-65
2022/12/13 01:47:35;;;;;;;29.38;15.25;;;;;;;0.09;63.50;100107.41;5055991;28;20048;-65
2022/12/13 01:50:12;;;;;;;27.92;14.30;;;;;;;0.24;63.22;100113.75;5033018;28;20053;-66
2022/12/13 01:52:43;;;;;;;29.95;15.20;;;;;;;0.20;62.98;100106.38;5037172;28;20064;-65
2022/12/13 01:55:11;;;;;;;26.50;15.10;;;;;;;0.11;63.69;100110.66;5038640;28;20057;-65
2022/12/13 01:57:40;;;;;;;29.40;15.13;;;;;;;0.40;62.45;100115.44;5037055;28;20053;-64
2022/12/13 02:00:13;;;;;;;27.92;14.48;;;;;;;0.16;62.91;100116.13;5037970;28;20052;-64
2022/12/13 02:02:40;;;;;;;31.23;14.85;;;;;;;0.24;62.24;100112.91;5038291;28;20080;-64
2022/12/13 02:05:42;;;;;;;28.20;14.32;;;;;;;0.39;62.29;100119.25;5036802;28;20050;-65
2022/12/13 02:08:11;;;;;;;28.45;14.73;;;;;;;0.22;62.65;100131.31;5018252;28;20069;-65
2022/12/13 02:10:38;;;;;;;27.20;14.75;;;;;;;0.18;61.84;100122.91;5003670;28;20068;-64
2022/12/13 02:13:06;;;;;;;25.42;13.82;;;;;;;0.10;61.74;100125.28;5038401;28;20057;-64
2022/12/13 02:15:59;;;;;;;26.13;13.77;;;;;;;0.21;61.56;100125.06;5037990;28;20037;-65
2022/12/13 02:19:00;;;;;;;28.45;14.20;;;;;;;0.26;61.74;100127.00;5048075;28;20053;-64
2022/12/13 02:22:04;;;;;;;27.98;14.40;;;;;;;-0.01;61.55;100122.50;5037759;28;20380;-64
2022/12/13 02:24:34;;;;;;;24.55;13.30;;;;;;;0.18;61.76;100113.94;5040279;28;20041;-65
2022/12/13 02:27:17;;;;;;;25.58;13.52;;;;;;;0.09;61.49;100119.03;5029224;28;20065;-64
2022/12/13 02:30:11;;;;;;;28.50;14.95;;;;;;;-0.07;61.51;100115.41;5017880;28;20050;-64
2022/12/13 02:32:55;;;;;;;26.13;13.57;;;;;;;-0.10;62.26;100118.63;5020092;28;20520;-64
2022/12/13 02:35:27;;;;;;;25.58;13.35;;;;;;;-0.13;61.29;100116.44;5002657;28;20050;-64
2022/12/13 02:38:12;;;;;;;27.60;13.95;;;;;;;-0.13;61.65;100113.75;5024238;28;20076;-64
2022/12/13 02:40:53;;;;;;;26.70;14.52;;;;;;;0.02;61.74;100109.53;5003191;28;20412;-64
2022/12/13 02:43:37;;;;;;;26.52;13.80;;;;;;;0.07;61.67;100115.75;5038139;28;20064;-64
2022/12/13 02:46:13;;;;;;;27.00;13.95;;;;;;;0.06;61.77;100105.19;5028810;28;20048;-64
2022/12/13 02:48:41;;;;;;;25.25;13.43;;;;;;;-0.09;61.76;100109.41;4999711;28;20493;-64
2022/12/13 02:51:10;;;;;;;24.42;13.27;;;;;;;-0.07;61.18;100109.97;5025165;28;20046;-64
2022/12/13 02:53:39;;;;;;;27.43;13.67;;;;;;;-0.12;61.46;100104.53;5035400;28;20432;-64
2022/12/13 02:56:07;;;;;;;25.33;13.85;;;;;;;0.04;61.38;100108.16;5015876;28;20069;-65
2022/12/13 02:58:41;;;;;;;25.27;13.10;;;;;;;-0.04;61.28;100105.94;5035966;28;20042;-64
2022/12/13 03:01:22;;;;;;;25.63;14.15;;;;;;;-0.05;60.99;100099.72;5037012;28;20488;-64
2022/12/13 03:04:17;;;;;;;29.30;13.25;;;;;;;-0.13;61.31;100094.78;5037449;28;20057;-63
2022/12/13 03:07:18;;;;;;;26.20;13.10;;;;;;;-0.23;62.13;100100.09;5047870;28;20063;-65
2022/12/13 03:09:53;;;;;;;25.83;13.45;;;;;;;-0.13;61.78;100097.50;5039377;28;20059;-66
2022/12/13 03:15:26;;;;;;;25.15;14.00;;;;;;;-0.07;61.53;100088.31;5003447;28;20049;-65
2022/12/13 03:18:14;;;;;;;25.80;13.38;;;;;;;0.18;61.23;100087.69;5055717;28;20057;-64
2022/12/13 03:20:49;;;;;;;23.48;13.15;;;;;;;-0.06;60.73;100084.56;5040144;28;20044;-64
2022/12/13 03:23:19;;;;;;;28.42;13.90;;;;;;;-0.06;60.79;100086.44;5039350;28;20057;-64
2022/12/13 03:25:49;;;;;;;31.25;14.57;;;;;;;-0.11;61.17;100084.53;5030454;28;20457;-65
2022/12/13 03:28:16;;;;;;;27.98;14.38;;;;;;;-0.07;60.31;100076.72;5033573;28;20497;-64
2022/12/13 03:30:43;;;;;;;26.40;12.88;;;;;;;-0.07;60.68;100065.88;5036307;28;20060;-65
2022/12/13 03:33:11;;;;;;;26.48;13.38;;;;;;;-0.11;60.41;100059.34;5036657;28;20057;-64
2022/12/13 03:35:39;;;;;;;23.45;13.65;;;;;;;-0.14;60.21;100068.00;5036384;28;20048;-64
2022/12/13 03:38:14;;;;;;;26.67;13.68;;;;;;;-0.18;60.78;100066.88;5019579;28;20603;-65
2022/12/13 03:40:55;;;;;;;24.23;13.13;;;;;;;-0.03;60.39;100070.50;5036075;28;20053;-64
2022/12/13 03:43:23;;;;;;;26.33;13.75;;;;;;;-0.16;60.33;100065.50;5036115;28;20484;-64
2022/12/13 03:45:51;;;;;;;23.45;12.38;;;;;;;-0.23;60.26;100070.34;5021411;28;20049;-64
2022/12/13 03:48:19;;;;;;;24.33;13.55;;;;;;;-0.13;60.55;100075.84;5018977;28;20053;-64
2022/12/13 03:50:50;;;;;;;26.27;14.38;;;;;;;-0.23;60.33;100089.28;5051187;28;20056;-64
2022/12/13 03:53:18;;;;;;;28.83;14.18;;;;;;;-0.05;60.29;100083.47;5001924;28;20519;-64
2022/12/13 03:55:59;;;;;;;24.38;13.10;;;;;;;-0.21;60.85;100084.44;5034825;28;20049;-65
2022/12/13 03:58:28;;;;;;;27.00;13.27;;;;;;;-0.27;60.01;100076.53;5035702;28;20060;-65
2022/12/13 04:01:07;;;;;;;26.83;13.57;;;;;;;-0.22;60.11;100073.88;5021756;28;20072;-65
2022/12/13 04:03:36;;;;;;;27.17;14.13;;;;;;;-0.30;59.82;100080.56;5034886;28;20045;-65
2022/12/13 04:06:04;;;;;;;27.83;14.70;;;;;;;-0.25;59.94;100080.63;5034499;28;20045;-64
2022/12/13 04:08:33;;;;;;;28.60;14.75;;;;;;;-0.22;60.69;100088.22;5034692;28;20436;-65
2022/12/13 04:13:31;;;;;;;28.20;14.90;;;;;;;-0.29;59.95;100082.22;5035399;28;20049;-64
2022/12/13 04:13:47;;;;;;;25.38;14.13;;;;;;;-0.44;60.86;100082.09;5034781;28;20068;-65
2022/12/13 04:16:16;;;;;;;27.70;14.55;;;;;;;-0.30;60.50;100071.66;5036894;28;20053;-64
2022/12/13 04:18:43;;;;;;;25.67;14.48;;;;;;;-0.40;60.07;100072.38;5055982;28;20690;-64
2022/12/13 04:21:11;;;;;;;28.63;14.10;;;;;;;-0.50;61.08;100069.56;5055662;28;20048;-64
2022/12/13 04:23:38;;;;;;;26.60;14.35;;;;;;;-0.36;60.57;100069.97;5038459;28;20049;-64
2022/12/13 04:26:05;;;;;;;27.88;14.82;;;;;;;-0.41;60.47;100061.81;5017826;28;20378;-64
2022/12/13 04:28:33;;;;;;;27.45;13.82;;;;;;;-0.30;60.81;100056.22;5035126;28;20041;-64
2022/12/13 04:31:00;;;;;;;26.52;14.38;;;;;;;-0.21;60.70;100061.97;5019743;28;20049;-64
2022/12/13 04:33:27;;;;;;;28.88;14.50;;;;;;;-0.30;60.90;100052.72;5035866;28;20057;-64
2022/12/13 04:35:55;;;;;;;29.70;15.27;;;;;;;-0.41;60.94;100059.94;5035301;28;20432;-64
2022/12/13 04:38:22;;;;;;;27.73;14.40;;;;;;;-0.22;60.34;100055.75;5018112;28;20053;-65
2022/12/13 04:40:49;;;;;;;27.95;14.80;;;;;;;-0.28;61.13;100051.34;5033703;28;20045;-65
2022/12/13 04:43:17;;;;;;;26.48;14.73;;;;;;;-0.41;60.96;100041.00;5021548;28;20114;-65
2022/12/13 04:45:44;;;;;;;28.65;14.93;;;;;;;-0.26;60.15;100046.50;5035338;28;20042;-65
2022/12/13 04:48:12;;;;;;;29.30;15.43;;;;;;;-0.13;59.86;100051.50;5035538;28;20056;-65
2022/12/13 04:50:58;;;;;;;26.52;14.98;;;;;;;-0.20;60.27;100042.78;5041200;28;20057;-67
2022/12/13 04:53:28;;;;;;;29.95;15.80;;;;;;;-0.19;60.74;100055.22;5055216;28;20400;-64
2022/12/13 04:55:56;;;;;;;29.20;15.45;;;;;;;-0.35;60.52;100047.25;5020403;28;20048;-65
2022/12/13 04:58:24;;;;;;;29.58;15.07;;;;;;;-0.28;60.68;100050.56;5018656;28;20046;-66
2022/12/13 05:00:51;;;;;;;31.42;16.35;;;;;;;-0.22;59.94;100044.91;5034787;28;20041;-65
2022/12/13 05:03:18;;;;;;;31.40;16.00;;;;;;;-0.38;60.94;100045.03;5050457;28;20053;-64
2022/12/13 05:05:46;;;;;;;25.77;14.07;;;;;;;-0.46;60.93;100049.06;5037762;28;20057;-65
2022/12/13 05:08:13;;;;;;;30.60;15.48;;;;;;;-0.53;61.95;100044.94;5055166;28;20045;-66
2022/12/13 05:10:40;;;;;;;34.55;15.93;;;;;;;-0.62;61.52;100036.47;5036559;28;20037;-66
2022/12/13 05:13:08;;;;;;;29.98;15.25;;;;;;;-0.59;61.72;100033.25;5035938;28;20129;-65
2022/12/13 05:15:35;;;;;;;30.13;15.35;;;;;;;-0.72;62.10;100035.56;5032734;28;20045;-65
2022/12/13 05:18:04;;;;;;;30.42;16.15;;;;;;;-0.44;61.67;100048.81;5053550;28;20053;-65
2022/12/13 05:20:38;;;;;;;35.75;16.05;;;;;;;-0.56;61.04;100040.84;5053084;28;20048;-65
2022/12/13 05:23:06;;;;;;;27.87;15.33;;;;;;;-0.59;61.80;100043.25;5055074;28;20052;-64
2022/12/13 05:25:35;;;;;;;30.88;16.40;;;;;;;-0.58;61.45;100040.31;5036545;28;20048;-65
2022/12/13 05:28:04;;;;;;;27.10;15.55;;;;;;;-0.68;61.64;100039.41;5018892;28;20058;-64
2022/12/13 05:30:51;;;;;;;26.88;15.48;;;;;;;-0.61;61.02;100031.91;5020342;28;20475;-64
2022/12/13 05:33:21;;;;;;;29.93;16.53;;;;;;;-0.67;61.72;100035.59;5035045;28;20424;-64
2022/12/13 05:35:48;;;;;;;30.33;16.30;;;;;;;-0.51;61.73;100040.91;5034349;28;20056;-65
2022/12/13 05:38:16;;;;;;;31.48;16.67;;;;;;;-0.54;61.63;100036.00;5034960;28;20065;-65
2022/12/13 05:40:43;;;;;;;34.08;16.55;;;;;;;-0.49;61.46;100044.16;5015152;28;20045;-65
2022/12/13 05:43:11;;;;;;;29.67;15.13;;;;;;;-0.29;61.51;100055.16;5034919;28;20053;-65
2022/12/13 05:45:49;;;;;;;27.85;14.85;;;;;;;-0.26;60.55;100051.09;5021250;28;20042;-64
2022/12/13 05:48:17;;;;;;;29.77;16.00;;;;;;;-0.39;60.87;100056.97;5033657;28;20057;-64
2022/12/13 05:50:51;;;;;;;28.48;14.90;;;;;;;-0.32;61.10;100057.56;5034200;28;20050;-64
2022/12/13 05:53:38;;;;;;;27.45;14.80;;;;;;;-0.39;60.75;100054.25;5034969;28;20064;-64
2022/12/13 05:56:07;;;;;;;29.08;15.23;;;;;;;-0.38;61.47;100054.00;5040979;28;20056;-64
2022/12/13 05:58:36;;;;;;;27.65;14.90;;;;;;;-0.34;60.19;100049.69;5036888;28;20053;-65
2022/12/13 06:01:11;;;;;;;33.35;16.15;;;;;;;-0.21;60.09;100060.06;5009281;28;20050;-65
2022/12/13 06:03:40;;;;;;;27.77;15.93;;;;;;;-0.31;60.53;100064.59;4997620;28;20057;-67
2022/12/13 06:06:09;;;;;;;27.52;15.77;;;;;;;-0.28;60.12;100061.38;5008119;28;20049;-66
2022/12/13 06:08:36;;;;;;;30.05;15.40;;;;;;;-0.16;59.99;100070.94;5033439;28;20041;-64
2022/12/13 06:11:05;;;;;;;28.92;14.80;;;;;;;-0.43;60.54;100077.47;5005021;28;20059;-64
2022/12/13 06:13:40;;;;;;;31.42;15.88;;;;;;;-0.37;60.76;100082.69;5035666;28;20053;-64
2022/12/13 06:16:11;;;;;;;28.45;16.17;;;;;;;-0.50;60.88;100087.69;5052484;28;20045;-63
2022/12/13 06:18:51;;;;;;;24.85;14.15;;;;;;;-0.38;61.11;100078.34;5053388;28;20049;-65
2022/12/13 06:21:27;;;;;;;28.17;15.13;;;;;;;-0.45;61.21;100085.03;5037300;28;20476;-64
2022/12/13 06:24:10;;;;;;;26.88;14.75;;;;;;;-0.31;60.57;100086.22;5039489;28;20055;-64
2022/12/13 06:26:37;;;;;;;29.85;16.35;;;;;;;-0.25;60.48;100088.75;5046129;28;20346;-64
2022/12/13 06:29:04;;;;;;;26.92;15.65;;;;;;;-0.10;60.21;100079.91;5058767;28;20049;-64
2022/12/13 06:31:32;;;;;;;30.77;15.35;;;;;;;-0.23;60.24;100081.16;5056216;28;20049;-65
2022/12/13 06:34:03;;;;;;;27.98;15.88;;;;;;;-0.26;60.23;100084.38;5015781;28;20414;-65
2022/12/13 06:36:41;;;;;;;29.75;15.50;;;;;;;-0.40;60.85;100083.19;5034150;28;20049;-63
2022/12/13 06:39:09;;;;;;;29.52;16.73;;;;;;;-0.47;60.79;100085.28;5039366;28;20049;-65
2022/12/13 06:41:36;;;;;;;26.67;15.73;;;;;;;-0.43;60.26;100080.19;5012589;28;20532;-63
2022/12/13 06:44:04;;;;;;;29.20;15.25;;;;;;;-0.31;60.67;100076.22;5023775;28;20373;-66
2022/12/13 06:46:31;;;;;;;31.13;15.98;;;;;;;-0.43;60.18;100077.47;5029428;28;20512;-65
2022/12/13 06:49:00;;;;;;;27.58;15.02;;;;;;;-0.55;60.75;100071.41;5057932;28;20056;-65
2022/12/13 06:51:27;;;;;;;30.15;15.50;;;;;;;-0.61;61.38;100067.84;5022592;28;20396;-65
2022/12/13 06:54:02;;;;;;;28.77;14.82;;;;;;;-0.46;60.85;100061.75;5057627;28;20049;-64
2022/12/13 06:56:30;;;;;;;28.77;16.52;;;;;;;-0.50;60.97;100055.22;5057048;28;20041;-64
2022/12/13 06:58:58;;;;;;;34.60;19.60;;;;;;;-0.44;60.84;100057.75;5057530;28;20052;-65
2022/12/13 07:01:29;;;;;;;31.58;15.30;;;;;;;-0.46;61.39;100057.19;5048212;28;20064;-64
2022/12/13 07:04:05;;;;;;;27.85;15.73;;;;;;;-0.62;61.77;100055.41;5024439;28;20048;-65
2022/12/13 07:06:52;;;;;;;33.78;15.02;;;;;;;-0.34;60.60;100051.59;5057154;28;20064;-65
2022/12/13 07:09:19;;;;;;;28.73;15.27;;;;;;;-0.36;60.75;100051.03;5057853;28;20060;-64
2022/12/13 07:11:47;;;;;;;29.25;15.68;;;;;;;-0.46;61.25;100049.06;5039875;28;20074;-63
2022/12/13 07:14:19;;;;;;;28.88;15.52;;;;;;;-0.50;61.03;100056.06;5036525;28;20061;-63
2022/12/13 07:16:46;;;;;;;29.88;15.05;;;;;;;-0.41;60.97;100046.41;5042799;28;20045;-64
2022/12/13 07:19:13;;;;;;;30.00;15.77;;;;;;;-0.31;61.04;100057.28;5037531;28;20049;-65
2022/12/13 07:21:51;;;;;;;28.67;15.73;;;;;;;-0.50;61.37;100058.75;5038331;28;20129;-66
2022/12/13 07:24:18;;;;;;;29.52;16.02;;;;;;;-0.51;61.12;100067.13;5019813;28;20550;-66
2022/12/13 07:26:46;;;;;;;29.58;16.20;;;;;;;-0.36;61.26;100061.84;5036798;28;20045;-66
2022/12/13 07:29:13;;;;;;;29.60;15.60;;;;;;;-0.24;61.27;100074.13;5051542;28;20050;-65
2022/12/13 07:31:49;;;;;;;28.45;15.02;;;;;;;-0.34;60.74;100082.16;5036257;28;20045;-65
2022/12/13 07:34:16;;;;;;;28.13;15.68;;;;;;;0.21;64.89;100084.44;5033627;28;20954;-63
2022/12/13 07:36:43;;;;;;;29.75;15.85;;;;;;;0.39;63.84;100078.63;5037120;28;20042;-65
2022/12/13 07:39:11;;;;;;;32.42;16.40;;;;;;;0.60;64.03;100079.53;5051379;28;20052;-65
2022/12/13 07:41:38;;;;;;;27.63;15.32;;;;;;;0.77;63.97;100077.44;5032621;28;20436;-63
2022/12/13 07:44:06;;;;;;;32.42;16.63;;;;;;;0.69;62.02;100083.38;5029928;28;20045;-65
2022/12/13 07:46:34;;;;;;;27.88;15.48;;;;;;;0.89;62.35;100088.91;5014480;28;20038;-64
2022/12/13 07:49:02;;;;;;;29.75;15.88;;;;;;;0.85;63.51;100094.03;5018534;28;20049;-65
2022/12/13 07:51:32;;;;;;;30.92;15.82;;;;;;;0.97;61.32;100086.47;5004879;28;20061;-63
2022/12/13 07:53:59;;;;;;;32.25;16.27;;;;;;;0.85;59.97;100102.16;5003502;28;20057;-65
2022/12/13 07:56:36;;;;;;;29.35;15.85;;;;;;;0.78;60.84;100106.19;4994243;28;20049;-64
2022/12/13 07:59:03;;;;;;;31.98;17.30;;;;;;;0.78;60.29;100104.31;5034197;28;20154;-65
2022/12/13 08:01:33;;;;;;;30.92;16.85;;;;;;;0.21;59.27;100111.53;5043915;28;20049;-64
2022/12/13 08:04:01;;;;;;;30.50;16.98;;;;;;;0.65;61.11;100114.78;5007281;28;20480;-64
2022/12/13 08:06:31;;;;;;;31.98;17.85;;;;;;;0.90;60.67;100123.03;5024174;28;20037;-65
2022/12/13 08:08:58;;;;;;;31.80;17.65;;;;;;;0.84;60.61;100118.66;5009858;28;20385;-64
2022/12/13 08:11:25;;;;;;;35.10;17.60;;;;;;;0.87;59.05;100115.44;5027147;28;20075;-65
2022/12/13 08:13:53;;;;;;;30.50;16.83;;;;;;;1.06;59.44;100120.13;5018865;28;20551;-64
2022/12/13 08:16:20;;;;;;;31.48;15.95;;;;;;;1.01;59.11;100120.09;5028995;28;20050;-64
2022/12/13 08:18:58;;;;;;;34.22;16.02;;;;;;;0.93;59.18;100120.63;5017718;28;20046;-65
2022/12/13 08:21:37;;;;;;;35.05;16.83;;;;;;;0.79;59.12;100116.75;5026006;28;20060;-66
2022/12/13 08:24:29;;;;;;;34.55;16.27;;;;;;;0.79;58.18;100127.59;5025494;28;20049;-65
2022/12/13 08:27:02;;;;;;;33.08;17.45;;;;;;;0.56;58.76;100127.22;5009791;28;20046;-66
2022/12/13 08:29:30;;;;;;;26.88;16.20;;;;;;;0.08;59.58;100128.25;5022548;28;20049;-64
2022/12/13 08:32:04;;;;;;;33.85;16.55;;;;;;;0.07;59.42;100120.38;5023554;28;20046;-65
2022/12/13 08:34:31;;;;;;;31.70;17.52;;;;;;;0.01;59.13;100124.94;5028001;28;20408;-64
2022/12/13 08:36:59;;;;;;;33.50;17.05;;;;;;;0.02;59.37;100125.75;5001313;28;20057;-62
2022/12/13 08:39:35;;;;;;;38.10;17.58;;;;;;;0.17;59.32;100128.56;5036304;28;20057;-63
2022/12/13 08:42:15;;;;;;;38.78;18.55;;;;;;;0.15;58.58;100130.72;5030507;28;20050;-63
2022/12/13 08:44:50;;;;;;;29.38;16.70;;;;;;;0.05;59.72;100127.94;5029206;28;20049;-64
2022/12/13 08:47:19;;;;;;;28.60;16.48;;;;;;;0.02;59.70;100131.97;5004876;28;20046;-64
2022/12/13 08:49:57;;;;;;;39.03;19.85;;;;;;;0.10;59.50;100123.38;5007094;28;20053;-63
2022/12/13 08:52:31;;;;;;;29.90;17.27;;;;;;;0.10;58.29;100130.69;5023752;28;20385;-64
2022/12/13 08:55:12;;;;;;;30.77;17.50;;;;;;;-0.08;58.80;100132.72;5007601;28;20056;-65
2022/12/13 08:57:41;;;;;;;35.25;17.42;;;;;;;0.01;59.39;100133.06;5020421;28;20057;-63
2022/12/13 09:00:12;;;;;;;31.17;17.17;;;;;;;0.13;59.31;100139.09;5015100;28;20133;-65
2022/12/13 09:02:39;;;;;;;34.40;18.42;;;;;;;-0.21;59.71;100125.00;5018961;28;20065;-62
2022/12/13 09:05:07;;;;;;;31.77;17.85;;;;;;;-0.12;59.08;100128.06;5029927;28;20052;-63
2022/12/13 09:07:36;;;;;;;38.97;19.20;;;;;;;-0.03;58.89;100123.81;5022514;28;20046;-61
2022/12/13 09:10:03;;;;;;;36.83;19.13;;;;;;;-0.14;59.47;100112.09;5013566;28;20078;-64
2022/12/13 09:12:53;;;;;;;32.90;18.30;;;;;;;-0.16;59.51;100103.41;5034878;28;20524;-62
2022/12/13 09:15:30;;;;;;;38.17;19.70;;;;;;;-0.12;59.19;100106.41;5022246;28;20053;-61
2022/12/13 09:18:01;;;;;;;34.35;18.10;;;;;;;-0.28;59.55;100105.47;5050547;28;20431;-61
2022/12/13 09:20:34;;;;;;;35.08;17.65;;;;;;;-0.29;59.80;100103.03;5018707;28;20473;-62
2022/12/13 09:23:10;;;;;;;33.17;18.45;;;;;;;-0.37;60.33;100100.81;5048519;28;20049;-62
2022/12/13 09:25:54;;;;;;;33.95;18.25;;;;;;;-0.09;59.41;100105.91;5032792;28;20057;-64
2022/12/13 09:28:31;;;;;;;45.67;21.33;;;;;;;-0.29;59.37;100117.38;5034031;28;20403;-62
2022/12/13 09:30:59;;;;;;;41.58;21.77;;;;;;;-0.25;59.90;100118.50;5007509;28;20341;-61
2022/12/13 09:33:27;;;;;;;32.72;18.25;;;;;;;-0.15;59.50;100118.59;5035064;28;20400;-61
2022/12/13 09:35:57;;;;;;;34.10;18.90;;;;;;;-0.17;60.07;100115.31;5032602;28;20050;-62
2022/12/13 09:38:27;;;;;;;32.97;18.40;;;;;;;-0.09;59.94;100119.44;5033849;28;20049;-62
2022/12/13 09:40:56;;;;;;;33.78;18.02;;;;;;;-0.18;59.53;100119.13;5037535;28;20064;-62
2022/12/13 09:43:32;;;;;;;35.45;18.98;;;;;;;-0.33;59.77;100118.97;5050490;28;20048;-62
2022/12/13 09:46:25;;;;;;;32.80;18.10;;;;;;;0.05;59.78;100115.22;5025760;28;20048;-61
2022/12/13 09:49:06;;;;;;;32.25;17.48;;;;;;;-0.03;59.30;100116.53;5020134;28;20424;-63
2022/12/13 09:51:39;;;;;;;35.70;19.50;;;;;;;-0.06;58.94;100119.75;5036411;28;20052;-62
2022/12/13 09:54:17;;;;;;;35.55;19.08;;;;;;;-0.05;58.92;100115.13;5038143;28;20053;-63
2022/12/13 09:56:49;;;;;;;34.85;18.45;;;;;;;-0.07;59.19;100109.97;5036831;28;20056;-62
2022/12/13 09:59:28;;;;;;;34.10;17.98;;;;;;;0.05;58.82;100107.09;5034081;28;20045;-63
2022/12/13 10:02:10;;;;;;;37.33;18.88;;;;;;;0.02;59.41;100107.59;5027855;28;20520;-61
2022/12/13 10:04:38;;;;;;;34.28;18.17;;;;;;;0.18;58.24;100103.94;5039213;28;20049;-63
2022/12/13 10:07:20;;;;;;;32.60;18.27;;;;;;;0.13;58.28;100103.91;5053676;28;20053;-63
2022/12/13 10:09:49;;;;;;;35.25;19.38;;;;;;;0.03;58.87;100101.94;5048542;28;20067;-62
2022/12/13 10:12:16;;;;;;;34.40;18.98;;;;;;;0.28;58.08;100098.59;5040249;28;20064;-62
2022/12/13 10:14:51;;;;;;;42.80;19.42;;;;;;;0.35;57.81;100098.38;5016149;28;20061;-62
2022/12/13 10:17:20;;;;;;;34.70;17.77;;;;;;;0.27;57.28;100113.22;5037835;28;20049;-62
2022/12/13 10:19:51;;;;;;;35.47;19.05;;;;;;;0.22;57.58;100109.66;5047195;28;20064;-63
2022/12/13 10:22:24;;;;;;;35.42;19.67;;;;;;;0.29;57.55;100107.53;5056026;28;20045;-62
2022/12/13 10:24:52;;;;;;;40.13;20.50;;;;;;;0.42;56.62;100105.16;5058610;28;20053;-62
2022/12/13 10:27:27;;;;;;;32.58;18.63;;;;;;;0.28;56.83;100104.00;5056518;28;20056;-62
2022/12/13 10:30:23;;;;;;;37.03;17.95;;;;;;;0.47;57.11;100101.69;5026166;28;20061;-64
2022/12/13 10:32:55;;;;;;;39.88;21.23;;;;;;;0.33;56.79;100092.41;5001259;28;20064;-62
2022/12/13 10:35:22;;;;;;;34.03;17.15;;;;;;;0.15;57.56;100098.22;5023893;28;20516;-63
2022/12/13 10:37:50;;;;;;;32.60;18.33;;;;;;;0.25;57.60;100101.81;5056902;28;20045;-61
2022/12/13 10:40:27;;;;;;;37.10;17.35;;;;;;;0.24;57.30;100102.09;5057522;28;20408;-62
2022/12/13 10:43:07;;;;;;;34.45;18.38;;;;;;;0.42;57.21;100098.97;5024443;28;20053;-62
2022/12/13 10:45:34;;;;;;;38.88;19.83;;;;;;;0.56;56.89;100098.22;5038481;28;20049;-63
2022/12/13 10:48:03;;;;;;;43.17;24.40;;;;;;;0.52;57.13;100093.59;5055536;28;20072;-62
2022/12/13 10:50:30;;;;;;;42.92;19.65;;;;;;;0.67;56.57;100090.94;5005520;28;20056;-62
2022/12/13 10:52:59;;;;;;;34.42;19.50;;;;;;;0.74;56.49;100083.38;5037637;28;20053;-62
2022/12/13 10:55:31;;;;;;;34.33;18.23;;;;;;;0.73;56.36;100079.06;5039678;28;20068;-62
2022/12/13 10:58:06;;;;;;;35.88;18.33;;;;;;;0.86;56.50;100078.56;5057904;28;20052;-62
2022/12/13 11:00:36;;;;;;;33.97;18.25;;;;;;;0.78;56.25;100065.53;5039860;28;20056;-62
2022/12/13 11:03:04;;;;;;;34.08;18.30;;;;;;;0.84;56.24;100059.03;5056229;28;20052;-62
2022/12/13 11:05:33;;;;;;;39.83;18.65;;;;;;;0.93;55.56;100055.56;5013481;28;20053;-62
2022/12/13 11:08:19;;;;;;;31.52;18.27;;;;;;;0.80;55.76;100055.25;5056232;28;20045;-62
2022/12/13 11:11:05;;;;;;;32.95;18.40;;;;;;;0.91;56.26;100052.28;5057026;28;20381;-62
2022/12/13 11:13:45;;;;;;;32.90;18.52;;;;;;;0.86;55.64;100046.03;5038441;28;20056;-60
2022/12/13 11:16:26;;;;;;;35.75;17.75;;;;;;;0.88;55.60;100035.75;5019047;28;20407;-63
2022/12/13 11:18:55;;;;;;;32.75;18.13;;;;;;;0.86;55.51;100035.19;5021700;28;20034;-61
2022/12/13 11:21:32;;;;;;;36.23;18.53;;;;;;;0.91;55.38;100032.47;5042109;28;20533;-63
2022/12/13 11:24:05;;;;;;;35.70;17.83;;;;;;;0.98;55.76;100041.19;5000230;28;20532;-62
2022/12/13 11:26:35;;;;;;;34.00;18.75;;;;;;;0.88;55.05;100041.16;5048004;28;20049;-62
2022/12/13 11:29:35;;;;;;;41.92;18.73;;;;;;;0.86;55.44;100032.47;5036384;28;20056;-63
2022/12/13 11:32:11;;;;;;;34.38;19.20;;;;;;;0.84;55.74;100026.50;5014492;28;20063;-63
2022/12/13 11:34:50;;;;;;;36.83;18.50;;;;;;;1.15;54.96;100018.16;5050429;28;20511;-64
2022/12/13 11:37:36;;;;;;;34.72;19.20;;;;;;;1.15;54.56;100020.88;5035728;28;20049;-62
2022/12/13 11:40:19;;;;;;;29.48;17.65;;;;;;;1.12;54.57;100024.16;5038674;28;20069;-62
2022/12/13 11:42:51;;;;;;;32.30;16.83;;;;;;;1.24;54.29;100032.03;5022664;28;20522;-63